Welcome to Des Moines Iowa Weather. I am an independent private personal weather station on the Northwest Side of Des Moines, Iowa. Just East of Windsor Heights and just West of Glendale . This site is also mobile friendly.

There are no active watches, warnings or advisories


Visit our other weather sites:

Weather Station Setup

Weather Data



Weather Underground History page Text

Daily Summary for October 23, 2018 Units:  English    Metric   Both
« Previous Day
Next Day »
Daily Weekly Monthly Yearly Custom
  Current: High: Low: Average:
Temperature: 52.9 °F 54.1 °F 32.6 °F 43.9 °F
Dew Point: 32 °F 34 °F 29 °F 31.8 °F
Humidity: 45 % 88 % 43 % 65 %
Wind Speed: 0 mph 6 mph 0 mph 0.3 mph
Wind Gust: 0 mph 9 mph - -
Wind:Calm - - SW
Pressure: 30.34 in 30.41 in 30.23 in -
Precipitation: 0 in      
Historical Graphs
 
 
Tabular Data for October 23, 2018
Time Temperature Dew Point Pressure Wind Wind Speed Wind Gust Humidity Rainfall Rate (Hourly)
00:00 47.9 °F 34 °F 30.23 in Calm   4 mph 60 % 0 in
00:15 48.1 °F 34 °F 30.24 in Calm   1 mph 59 % 0 in
00:30 47.9 °F 34 °F 30.24 in Calm   4 mph 58 % 0 in
00:45 47.7 °F 34 °F 30.24 in Calm     59 % 0 in
01:00 47 °F 34 °F 30.25 in Calm     62 % 0 in
01:15 45.7 °F 34 °F 30.25 in Calm     64 % 0 in
01:30 44.9 °F 34 °F 30.26 in Calm     66 % 0 in
01:45 44.2 °F 33 °F 30.26 in Calm   3 mph 65 % 0 in
02:00 44.3 °F 33 °F 30.27 in Calm   3 mph 64 % 0 in
02:15 44.5 °F 32 °F 30.27 in Calm     63 % 0 in
02:30 44.3 °F 32 °F 30.27 in Calm   3 mph 63 % 0 in
02:45 44 °F 32 °F 30.28 in Calm   2 mph 63 % 0 in
03:00 43.8 °F 32 °F 30.29 in Calm     64 % 0 in
03:15 43.2 °F 32 °F 30.29 in Calm     65 % 0 in
03:30 42.2 °F 31 °F 30.29 in Calm     66 % 0 in
03:45 41.3 °F 32 °F 30.30 in Calm     69 % 0 in
04:00 40.4 °F 31 °F 30.30 in Calm     70 % 0 in
04:15 39.5 °F 31 °F 30.30 in Calm     71 % 0 in
04:30 38.6 °F 31 °F 30.30 in Calm     73 % 0 in
04:45 37.9 °F 31 °F 30.30 in Calm     76 % 0 in
05:00 37.3 °F 31 °F 30.30 in Calm     77 % 0 in
05:15 36.9 °F 31 °F 30.30 in Calm     78 % 0 in
05:30 36.4 °F 30 °F 30.31 in Calm     79 % 0 in
05:45 36 °F 30 °F 30.32 in Calm     79 % 0 in
06:00 35.4 °F 30 °F 30.32 in Calm     80 % 0 in
06:15 34.8 °F 30 °F 30.32 in Calm     81 % 0 in
06:30 34.3 °F 29 °F 30.32 in Calm     82 % 0 in
06:45 33.8 °F 29 °F 30.32 in Calm     83 % 0 in
07:00 33.5 °F 29 °F 30.33 in Calm     84 % 0 in
07:15 33.3 °F 29 °F 30.33 in Calm     85 % 0 in
07:30 33 °F 29 °F 30.34 in Calm     85 % 0 in
07:45 32.8 °F 29 °F 30.34 in Calm     86 % 0 in
08:00 32.6 °F 29 °F 30.34 in Calm     86 % 0 in
08:15 32.8 °F 29 °F 30.35 in Calm     87 % 0 in
08:30 33.5 °F 30 °F 30.35 in Calm     88 % 0 in
08:45 34.5 °F 31 °F 30.36 in Calm     87 % 0 in
09:00 35.7 °F 32 °F 30.37 in Calm   2 mph 85 % 0 in
09:15 36.8 °F 32 °F 30.38 in Calm   3 mph 83 % 0 in
09:30 37.9 °F 32 °F 30.39 in Calm   2 mph 80 % 0 in
09:45 39.5 °F 33 °F 30.39 in Calm   5 mph 77 % 0 in
10:00 40.9 °F 33 °F 30.40 in Calm   3 mph 73 % 0 in
10:15 42.1 °F 33 °F 30.40 in Calm   4 mph 69 % 0 in
10:30 43.2 °F 33 °F 30.40 in Calm   3 mph 68 % 0 in
10:45 43.9 °F 33 °F 30.41 in NNW 1 mph 5 mph 65 % 0 in
11:00 44.5 °F 33 °F 30.40 in Calm   5 mph 64 % 0 in
11:15 45 °F 33 °F 30.40 in Calm   4 mph 63 % 0 in
11:30 45.8 °F 32 °F 30.41 in Calm   4 mph 60 % 0 in
11:45 46.8 °F 32 °F 30.40 in Calm   5 mph 57 % 0 in
12:00 47.2 °F 33 °F 30.40 in North 3 mph 3 mph 58 % 0 in
12:16 47.5 °F 33 °F 30.39 in ENE 3 mph 4 mph 57 % 0 in
12:30 48.1 °F 33 °F 30.39 in NNE 2 mph 5 mph 56 % 0 in
12:45 49.4 °F 33 °F 30.39 in NW 6 mph 9 mph 53 % 0 in
13:00 51 °F 33 °F 30.39 in Calm   6 mph 51 % 0 in
13:15 51.4 °F 33 °F 30.38 in NE 1 mph 6 mph 49 % 0 in
13:30 51.8 °F 33 °F 30.37 in Calm   6 mph 49 % 0 in
13:45 52.9 °F 33 °F 30.37 in WNW 3 mph 7 mph 48 % 0 in
14:00 52.7 °F 33 °F 30.37 in Calm   2 mph 48 % 0 in
14:15 53.1 °F 32 °F 30.36 in Calm   6 mph 45 % 0 in
14:30 53.7 °F 33 °F 30.36 in Calm   3 mph 45 % 0 in
14:45 54.1 °F 32 °F 30.36 in Calm   5 mph 44 % 0 in
15:00 53.5 °F 32 °F 30.36 in WNW 2 mph 6 mph 44 % 0 in
15:15 53.2 °F 31 °F 30.35 in Calm   7 mph 43 % 0 in
15:30 53.1 °F 31 °F 30.35 in Calm   4 mph 43 % 0 in
15:45 52.8 °F 31 °F 30.34 in Calm   2 mph 44 % 0 in
16:00 53.1 °F 31 °F 30.34 in Calm   8 mph 43 % 0 in
16:15 53.1 °F 33 °F 30.34 in Calm   4 mph 46 % 0 in
16:30 53 °F 32 °F 30.34 in Calm   5 mph 45 % 0 in
16:45 53 °F 31 °F 30.35 in Calm   1 mph 44 % 0 in
17:00 53.2 °F 32 °F 30.34 in Calm   4 mph 44 % 0 in
17:15 52.9 °F 32 °F 30.34 in Calm     45 % 0 in
Des Moines Weather and Climate
Compliments of Weather Underground - 3 mb

Script developed by  Jim McMurry - jmcmurry@mwt.net Adapted for the template by  Wim van der Kuil - Leuven-Template.eu

You find our weather info also at:

Weather Underground

Equipment we use:

Weather-station
Davis VP2 Plus

Weather-program
Davis Weatherlink.Com

Weather-server
iMac (Retina 4K, 21.5-inch, Late 2017)

Provider
Hostmonster.com

Davis VP2 Plus

Davis Weatherlink.Com

iMac (Retina 4K, 21.5-inch, Late 2017)

Hostmonster.com